Time;durP1;ratioP1;P1;durP2;ratioP2;P2;SDS_P1;SDS_P2;PMS_P1;PMS_P2;Temp;Humidity;BMP_temperature;BMP_pressure;BME280_temperature;BME280_humidity;BME280_pressure;Samples;Min_cycle;Max_cycle;Signal;HPM_P1;HPM_P2
2023/05/19 00:00:29;;;;;;;16.50;8.93;;;;;;;6.09;78.12;102013.09;5047114;28;20222;-74
2023/05/19 00:02:56;;;;;;;13.57;8.83;;;;;;;6.08;77.89;102015.97;5045954;28;21031;-74
2023/05/19 00:05:23;;;;;;;11.97;7.90;;;;;;;6.09;78.79;102017.56;5045575;28;20211;-74
2023/05/19 00:07:51;;;;;;;12.83;7.23;;;;;;;6.07;78.85;102017.81;5049307;28;20692;-75
2023/05/19 00:10:18;;;;;;;10.13;6.63;;;;;;;6.06;79.06;102012.84;5029990;28;20219;-74
2023/05/19 00:12:45;;;;;;;14.50;6.57;;;;;;;6.06;79.38;102011.00;5046209;28;20670;-74
2023/05/19 00:15:14;;;;;;;10.50;6.10;;;;;;;6.05;79.14;102006.81;5048579;28;20211;-74
2023/05/19 00:17:41;;;;;;;10.77;6.17;;;;;;;6.04;79.48;102007.06;5047927;28;20199;-74
2023/05/19 00:20:09;;;;;;;11.63;5.97;;;;;;;6.03;79.39;102006.28;5048036;28;20227;-74
2023/05/19 00:22:37;;;;;;;10.37;6.17;;;;;;;6.03;79.70;102005.50;5045030;28;20218;-74
2023/05/19 00:25:05;;;;;;;8.47;6.03;;;;;;;6.02;79.05;102003.91;5032062;28;20355;-74
2023/05/19 00:27:31;;;;;;;9.40;5.73;;;;;;;5.97;79.12;102002.09;5047318;28;20207;-74
2023/05/19 00:29:57;;;;;;;7.87;5.77;;;;;;;5.95;79.04;102006.78;5030144;28;20229;-74
2023/05/19 00:32:25;;;;;;;7.87;5.70;;;;;;;5.95;79.22;102008.63;5027268;28;20207;-74
2023/05/19 00:34:52;;;;;;;9.10;5.67;;;;;;;5.94;79.16;102007.84;5046552;28;20205;-75
2023/05/19 00:37:19;;;;;;;8.37;5.90;;;;;;;5.97;79.66;102012.56;5025784;28;20199;-75
2023/05/19 00:39:46;;;;;;;11.17;5.47;;;;;;;5.92;78.97;102009.94;5024265;28;20231;-74
2023/05/19 00:42:12;;;;;;;11.93;5.17;;;;;;;5.88;77.38;102006.25;5047553;28;20215;-74
2023/05/19 00:44:41;;;;;;;8.13;5.83;;;;;;;5.86;77.32;102008.34;5030086;28;20664;-74
2023/05/19 00:47:07;;;;;;;11.50;5.90;;;;;;;5.87;78.59;102004.69;5028759;28;20288;-74
2023/05/19 00:49:35;;;;;;;9.13;5.57;;;;;;;5.85;78.42;102001.53;5028164;28;20191;-75
2023/05/19 00:52:02;;;;;;;11.50;5.73;;;;;;;5.82;78.31;102009.91;5041940;28;20203;-74
2023/05/19 00:54:29;;;;;;;10.63;5.83;;;;;;;5.81;78.70;102016.19;5024564;28;20210;-74
2023/05/19 00:56:57;;;;;;;7.70;5.17;;;;;;;5.79;78.59;102006.97;5033271;28;20200;-74
2023/05/19 00:59:23;;;;;;;7.97;5.77;;;;;;;5.80;79.23;102017.25;5043711;28;20206;-74
2023/05/19 01:01:50;;;;;;;7.93;5.40;;;;;;;5.77;79.27;102016.94;5045849;28;20206;-74
2023/05/19 01:04:18;;;;;;;7.97;5.27;;;;;;;5.74;78.86;102018.25;5047176;28;20207;-74
2023/05/19 01:06:47;;;;;;;10.37;4.67;;;;;;;5.73;79.03;102006.19;5027996;28;20198;-75
2023/05/19 01:09:13;;;;;;;8.27;5.57;;;;;;;5.73;80.00;102011.44;5045477;28;20195;-74
2023/05/19 01:11:39;;;;;;;8.03;4.93;;;;;;;5.74;80.45;102009.59;5029726;28;20245;-74
2023/05/19 01:14:06;;;;;;;7.57;5.40;;;;;;;5.72;80.68;102012.47;5047934;28;20511;-74
2023/05/19 01:16:39;;;;;;;7.13;4.90;;;;;;;5.70;79.93;102011.16;5048387;28;20195;-74
2023/05/19 01:19:24;;;;;;;7.70;5.07;;;;;;;5.68;79.77;102015.84;5046964;28;20211;-74
2023/05/19 01:22:12;;;;;;;8.23;5.10;;;;;;;5.69;80.34;102009.59;5025761;28;20746;-74
2023/05/19 01:25:05;;;;;;;7.50;4.83;;;;;;;5.66;80.62;102005.66;5029718;28;20314;-75
2023/05/19 01:28:01;;;;;;;6.23;5.00;;;;;;;5.65;80.63;102003.28;5041257;28;20250;-74
2023/05/19 01:30:33;;;;;;;6.87;4.63;;;;;;;5.65;80.90;102006.69;5045366;28;20226;-74
2023/05/19 01:33:05;;;;;;;7.70;4.37;;;;;;;5.61;80.41;102002.22;5027710;28;20721;-74
2023/05/19 01:35:34;;;;;;;6.30;4.47;;;;;;;5.59;80.50;102004.31;5051068;28;20257;-73
2023/05/19 01:38:01;;;;;;;8.00;4.40;;;;;;;5.55;80.25;102006.66;5030395;28;20203;-74
2023/05/19 01:40:29;;;;;;;6.20;4.53;;;;;;;5.54;80.32;102004.31;5032017;28;20706;-74
2023/05/19 01:42:59;;;;;;;7.43;4.90;;;;;;;5.52;80.28;102004.56;5044795;28;20674;-74
2023/05/19 01:45:28;;;;;;;8.27;4.80;;;;;;;5.51;80.49;102005.59;5041309;28;20208;-74
2023/05/19 01:47:58;;;;;;;6.00;4.07;;;;;;;5.48;80.35;102003.50;5045658;28;20196;-75
2023/05/19 01:50:25;;;;;;;5.87;4.53;;;;;;;5.47;80.59;102004.53;5029985;28;20219;-75
2023/05/19 01:52:52;;;;;;;6.57;4.53;;;;;;;5.48;80.46;102007.94;5048782;28;20209;-74
2023/05/19 01:55:18;;;;;;;6.87;4.43;;;;;;;5.48;80.77;102002.69;5032138;28;20203;-74
2023/05/19 01:57:55;;;;;;;7.77;4.23;;;;;;;5.48;81.11;101998.25;5048388;28;20205;-74
2023/05/19 02:00:31;;;;;;;6.97;4.00;;;;;;;5.49;81.28;101999.81;5026793;28;20310;-74
2023/05/19 02:03:09;;;;;;;10.03;4.97;;;;;;;5.52;81.67;102001.94;5029489;28;20195;-74
2023/05/19 02:05:44;;;;;;;6.63;4.37;;;;;;;5.51;81.82;102002.19;5027604;28;20199;-74
2023/05/19 02:08:20;;;;;;;6.53;4.50;;;;;;;5.53;81.53;102002.72;5030678;28;20203;-74
2023/05/19 02:10:52;;;;;;;5.97;4.07;;;;;;;5.49;80.74;102007.69;5050862;28;20580;-74
2023/05/19 02:13:20;;;;;;;6.70;4.23;;;;;;;5.48;79.67;102000.06;5034067;28;20585;-74
2023/05/19 02:15:49;;;;;;;7.63;4.63;;;;;;;5.50;80.17;102001.38;5034648;28;20195;-74
2023/05/19 02:18:19;;;;;;;6.57;4.47;;;;;;;5.52;80.39;101998.50;5033242;28;20612;-74
2023/05/19 02:20:49;;;;;;;5.60;3.93;;;;;;;5.49;79.22;101997.19;5031037;28;20313;-74
2023/05/19 02:23:15;;;;;;;6.27;4.20;;;;;;;5.51;79.16;102000.38;5051013;28;20212;-74
2023/05/19 02:25:42;;;;;;;5.70;4.30;;;;;;;5.56;80.73;101997.75;5050375;28;20195;-75
2023/05/19 02:28:09;;;;;;;6.60;4.50;;;;;;;5.57;80.79;101996.72;5034105;28;20207;-75
2023/05/19 02:30:35;;;;;;;4.27;3.67;;;;;;;5.58;80.51;101994.88;5031550;28;20218;-74
2023/05/19 02:33:01;;;;;;;5.53;3.93;;;;;;;5.61;80.43;101991.75;5032039;28;20192;-74
2023/05/19 02:35:29;;;;;;;5.40;3.87;;;;;;;5.62;80.30;101998.56;5030634;28;20195;-74
2023/05/19 02:37:56;;;;;;;5.10;4.03;;;;;;;5.65;80.39;102000.66;5033316;28;20199;-74
2023/05/19 02:40:23;;;;;;;5.37;3.93;;;;;;;5.68;80.95;102000.94;5028361;28;20742;-75
2023/05/19 02:42:49;;;;;;;5.63;4.03;;;;;;;5.69;80.54;101999.13;5030270;28;20287;-76
2023/05/19 02:45:16;;;;;;;5.77;4.23;;;;;;;5.70;79.94;102004.06;5030504;28;20678;-76
2023/05/19 02:47:42;;;;;;;6.03;3.87;;;;;;;5.73;80.36;101997.53;5045030;28;20195;-75
2023/05/19 02:50:09;;;;;;;5.83;3.80;;;;;;;5.75;80.34;101998.84;5049331;28;20310;-76
2023/05/19 02:52:37;;;;;;;5.13;3.30;;;;;;;5.80;80.65;101998.13;5046606;28;20195;-75
2023/05/19 02:55:04;;;;;;;6.33;4.07;;;;;;;5.83;81.15;102002.81;5045131;28;20913;-75
2023/05/19 02:57:33;;;;;;;4.53;3.87;;;;;;;5.83;80.64;102003.63;5051911;28;20218;-75
2023/05/19 03:06:13;;;;;;;5.10;3.60;;;;;;;5.87;80.31;101999.44;5027835;28;20908;-75
2023/05/19 03:08:42;;;;;;;6.90;3.57;;;;;;;5.84;79.13;101999.94;5042099;28;20205;-76
2023/05/19 03:11:09;;;;;;;5.27;3.83;;;;;;;5.82;79.14;101996.81;5044174;28;20251;-75
2023/05/19 03:13:36;;;;;;;4.47;3.73;;;;;;;5.80;79.87;102006.75;5042301;28;20261;-74
2023/05/19 03:16:03;;;;;;;8.50;3.80;;;;;;;5.78;79.67;102006.22;5037408;28;20203;-75
2023/05/19 03:18:30;;;;;;;6.53;3.60;;;;;;;5.73;79.15;102003.56;5043012;28;20290;-75
2023/05/19 03:21:07;;;;;;;4.93;3.50;;;;;;;5.70;79.47;102001.44;5013348;28;20491;-74
2023/05/19 03:23:34;;;;;;;5.60;3.40;;;;;;;5.71;79.75;102004.88;5039373;28;20239;-75
2023/05/19 03:26:03;;;;;;;6.13;3.20;;;;;;;5.69;80.21;101999.88;5057926;28;20226;-75
2023/05/19 03:28:30;;;;;;;5.50;3.30;;;;;;;5.67;80.42;102009.84;5041075;28;20646;-75
2023/05/19 03:30:57;;;;;;;7.13;3.60;;;;;;;5.65;80.08;102000.66;5041608;28;20223;-75
2023/05/19 03:33:28;;;;;;;3.90;3.30;;;;;;;5.64;80.20;102006.97;5039877;28;20709;-75
2023/05/19 03:35:56;;;;;;;3.90;3.20;;;;;;;5.63;80.42;102008.78;5057734;28;20219;-75
2023/05/19 03:38:23;;;;;;;4.00;3.40;;;;;;;5.63;80.52;102008.78;5062781;28;20191;-75
2023/05/19 03:40:56;;;;;;;5.33;3.20;;;;;;;5.63;80.42;102008.78;5038673;28;20306;-74
2023/05/19 03:43:24;;;;;;;5.13;3.47;;;;;;;5.62;79.43;102015.06;5039692;28;20642;-75
2023/05/19 03:45:58;;;;;;;5.13;3.60;;;;;;;5.66;80.16;102007.47;5041441;28;20203;-75
2023/05/19 03:48:43;;;;;;;5.40;3.17;;;;;;;5.69;80.47;102015.59;5060686;28;20222;-74
2023/05/19 03:51:22;;;;;;;4.53;3.30;;;;;;;5.75;81.19;102006.72;5057232;28;20219;-75
2023/05/19 03:53:52;;;;;;;4.17;2.70;;;;;;;5.79;80.30;102020.06;5041157;28;20206;-75
2023/05/19 03:56:21;;;;;;;4.60;3.17;;;;;;;5.84;80.11;102025.38;5039229;28;20199;-75
2023/05/19 03:58:50;;;;;;;5.00;3.47;;;;;;;5.88;79.85;102026.44;5041398;28;20199;-75
2023/05/19 04:01:17;;;;;;;4.93;3.60;;;;;;;5.93;79.94;102024.63;5055157;28;20230;-74
2023/05/19 04:03:44;;;;;;;5.33;3.53;;;;;;;6.00;80.02;102019.13;5040637;28;20261;-75
2023/05/19 04:06:11;;;;;;;6.30;3.27;;;;;;;6.03;80.24;102014.16;5037934;28;20326;-75
2023/05/19 04:08:39;;;;;;;5.67;3.33;;;;;;;6.10;80.02;102016.50;5040571;28;20249;-75
2023/05/19 04:11:06;;;;;;;4.90;3.67;;;;;;;6.17;79.92;102023.06;5037664;28;20219;-74
2023/05/19 04:13:33;;;;;;;4.03;3.43;;;;;;;6.24;80.12;102025.44;5053827;28;20236;-75
2023/05/19 04:16:01;;;;;;;7.13;3.87;;;;;;;6.32;80.71;102022.31;5036644;28;20205;-74
2023/05/19 04:18:28;;;;;;;5.40;3.40;;;;;;;6.39;80.77;102031.50;5040585;28;20228;-75
2023/05/19 04:20:55;;;;;;;5.77;3.17;;;;;;;6.47;80.51;102025.72;5035548;28;20223;-75
2023/05/19 04:23:22;;;;;;;5.40;3.37;;;;;;;6.55;80.26;102030.44;5038215;28;20231;-75
2023/05/19 04:25:49;;;;;;;4.53;3.30;;;;;;;6.63;79.34;102021.25;5039942;28;20219;-75
2023/05/19 04:28:17;;;;;;;3.70;3.27;;;;;;;6.70;78.42;102029.63;5040907;28;20230;-74
2023/05/19 04:30:45;;;;;;;4.43;3.57;;;;;;;6.79;78.72;102025.44;5039175;28;20302;-75
2023/05/19 04:33:13;;;;;;;4.60;3.57;;;;;;;6.85;78.05;102022.56;5039203;28;20219;-75
2023/05/19 04:35:40;;;;;;;6.53;3.90;;;;;;;6.96;77.87;102026.72;5035550;28;20200;-75
2023/05/19 04:38:11;;;;;;;7.27;3.53;;;;;;;7.04;76.78;102028.78;5039479;28;20197;-74
2023/05/19 04:40:39;;;;;;;5.70;3.60;;;;;;;7.14;75.97;102028.00;5050492;28;20230;-73
2023/05/19 04:43:06;;;;;;;6.07;3.80;;;;;;;7.23;75.18;102026.38;5071590;28;20259;-74
2023/05/19 04:45:32;;;;;;;5.20;3.77;;;;;;;7.34;74.75;102035.78;5032510;28;20223;-74
2023/05/19 04:48:03;;;;;;;8.97;4.17;;;;;;;7.44;74.15;102028.66;5026388;28;20766;-74
2023/05/19 04:50:32;;;;;;;6.17;4.50;;;;;;;7.57;73.86;102027.31;5028514;28;20613;-74
2023/05/19 04:53:00;;;;;;;6.03;4.53;;;;;;;7.68;72.46;102036.72;5027937;28;20725;-74
2023/05/19 04:55:27;;;;;;;6.70;4.50;;;;;;;7.81;72.86;102033.50;5023942;28;20188;-75
2023/05/19 04:57:54;;;;;;;7.47;4.30;;;;;;;7.92;72.41;102025.25;5040025;28;20203;-74
2023/05/19 05:00:21;;;;;;;5.37;4.00;;;;;;;8.02;72.28;102033.09;5027040;28;20712;-74
2023/05/19 05:03:07;;;;;;;5.97;4.10;;;;;;;8.16;72.55;102035.91;5028350;28;20202;-75
2023/05/19 05:05:35;;;;;;;7.63;4.20;;;;;;;8.27;72.07;102037.41;5044799;28;20242;-74
2023/05/19 05:08:02;;;;;;;7.37;4.27;;;;;;;8.38;71.91;102038.94;5022063;28;20721;-74
2023/05/19 05:10:33;;;;;;;5.90;4.40;;;;;;;8.45;72.18;102032.28;5027623;28;20226;-74
2023/05/19 05:13:01;;;;;;;5.73;4.30;;;;;;;8.57;71.05;102031.94;5044663;28;20250;-74
2023/05/19 05:15:28;;;;;;;7.07;4.67;;;;;;;8.67;70.85;102037.09;5023377;28;20203;-74
2023/05/19 05:17:56;;;;;;;5.40;4.77;;;;;;;8.76;70.31;102040.72;5028223;28;20201;-74
2023/05/19 05:20:24;;;;;;;7.27;4.67;;;;;;;8.83;70.21;102036.69;5041944;28;20251;-75
2023/05/19 05:22:52;;;;;;;6.83;4.77;;;;;;;8.92;70.05;102042.13;5024000;28;20707;-74
2023/05/19 05:25:21;;;;;;;9.90;5.50;;;;;;;9.00;71.02;102039.69;5025839;28;20265;-74
2023/05/19 05:27:48;;;;;;;7.37;4.93;;;;;;;9.09;69.87;102048.56;5026465;28;20288;-74
2023/05/19 05:30:15;;;;;;;6.57;5.17;;;;;;;9.19;70.63;102042.38;5041998;28;20638;-74
2023/05/19 05:32:42;;;;;;;6.17;4.67;;;;;;;9.27;69.52;102039.13;5022561;28;20916;-74
2023/05/19 05:35:17;;;;;;;9.33;4.77;;;;;;;9.33;69.15;102038.81;5024077;28;20196;-74
2023/05/19 05:37:43;;;;;;;7.83;4.90;;;;;;;9.41;68.78;102045.28;5025824;28;20671;-74
2023/05/19 05:40:12;;;;;;;5.67;4.70;;;;;;;9.49;68.73;102037.56;5041836;28;20585;-75
2023/05/19 05:42:38;;;;;;;7.77;4.80;;;;;;;9.56;68.59;102039.81;5027095;28;20379;-74
2023/05/19 05:45:07;;;;;;;5.53;4.40;;;;;;;9.63;68.96;102048.97;5025050;28;20501;-74
2023/05/19 05:47:36;;;;;;;11.20;5.13;;;;;;;9.71;68.31;102045.72;5040731;28;20207;-74
2023/05/19 05:50:04;;;;;;;7.00;5.30;;;;;;;9.81;68.48;102050.06;5027395;28;20491;-75
2023/05/19 05:52:34;;;;;;;6.30;4.83;;;;;;;9.91;67.96;102049.91;5048130;28;20685;-74
2023/05/19 05:55:01;;;;;;;6.80;4.87;;;;;;;9.98;67.83;102040.59;5028652;28;20296;-75
2023/05/19 05:57:30;;;;;;;7.10;4.53;;;;;;;10.08;68.10;102042.31;5030049;28;20622;-74
2023/05/19 05:59:57;;;;;;;9.23;4.97;;;;;;;10.16;67.37;102039.84;5028019;28;20226;-75
2023/05/19 06:02:23;;;;;;;9.27;5.23;;;;;;;10.26;67.74;102038.88;5023226;28;20203;-74
2023/05/19 06:04:50;;;;;;;6.57;4.93;;;;;;;10.35;66.66;102026.59;5026788;28;20210;-74
2023/05/19 06:07:17;;;;;;;6.43;4.60;;;;;;;10.45;66.94;102039.66;5023003;28;20248;-75
2023/05/19 06:09:44;;;;;;;5.23;4.43;;;;;;;10.55;66.75;102042.09;5029201;28;20221;-74
2023/05/19 06:12:11;;;;;;;8.03;4.93;;;;;;;10.65;66.29;102032.16;5041821;28;20201;-74
2023/05/19 06:14:44;;;;;;;6.60;4.57;;;;;;;10.77;66.65;102037.00;5027213;28;20282;-75
2023/05/19 06:17:25;;;;;;;7.40;4.83;;;;;;;10.89;65.68;102040.72;5026208;28;20198;-75
2023/05/19 06:19:52;;;;;;;6.70;4.80;;;;;;;11.01;66.28;102034.94;5023948;28;20280;-75
2023/05/19 06:22:18;;;;;;;6.60;4.50;;;;;;;11.11;65.80;102035.56;5026559;28;20705;-75
2023/05/19 06:24:45;;;;;;;6.33;4.43;;;;;;;11.23;66.29;102033.19;5028340;28;20353;-74
2023/05/19 06:27:11;;;;;;;5.43;4.33;;;;;;;11.36;65.64;102035.06;5026215;28;20195;-75
2023/05/19 06:29:38;;;;;;;6.70;4.17;;;;;;;11.52;64.83;102031.03;5030108;28;20599;-75
2023/05/19 06:32:08;;;;;;;8.70;4.03;;;;;;;11.68;65.11;102034.97;5028616;28;20201;-74
2023/05/19 06:34:37;;;;;;;6.53;4.23;;;;;;;11.87;64.87;102027.66;5025916;28;20282;-75
2023/05/19 06:37:03;;;;;;;4.90;3.87;;;;;;;12.08;64.91;102036.72;5044985;28;20216;-74
2023/05/19 06:39:34;;;;;;;4.60;3.70;;;;;;;12.29;63.59;102029.88;5026164;28;20196;-75
2023/05/19 06:42:01;;;;;;;6.00;4.10;;;;;;;12.47;62.97;102028.13;5025636;28;20201;-74
2023/05/19 06:44:50;;;;;;;4.90;4.10;;;;;;;12.63;62.61;102027.41;5026555;28;20224;-75
2023/05/19 06:47:18;;;;;;;6.83;4.00;;;;;;;12.79;61.55;102030.47;5044333;28;20195;-74
2023/05/19 06:49:49;;;;;;;6.23;4.20;;;;;;;12.91;61.16;102023.50;5026384;28;20224;-75
2023/05/19 06:52:16;;;;;;;6.07;3.87;;;;;;;13.03;61.30;102036.19;5026197;28;20212;-75
2023/05/19 06:54:43;;;;;;;8.10;3.67;;;;;;;13.18;61.39;102035.78;5023238;28;20228;-74
2023/05/19 06:57:10;;;;;;;4.90;3.60;;;;;;;13.39;59.40;102042.09;5026411;28;20576;-75
2023/05/19 06:59:39;;;;;;;5.50;3.70;;;;;;;13.51;59.80;102040.41;5024348;28;20227;-75
2023/05/19 07:02:07;;;;;;;4.90;3.40;;;;;;;13.70;59.22;102042.78;5021083;28;20695;-75
2023/05/19 07:04:36;;;;;;;4.83;3.23;;;;;;;13.82;59.78;102045.63;5024356;28;20239;-75
2023/05/19 07:07:02;;;;;;;7.17;3.77;;;;;;;13.98;58.68;102049.38;5027994;28;20251;-75
2023/05/19 07:09:29;;;;;;;6.00;3.60;;;;;;;14.08;57.64;102046.41;5027146;28;20587;-75
2023/05/19 07:11:56;;;;;;;4.83;3.10;;;;;;;14.19;58.35;102047.66;5024128;28;20206;-75
2023/05/19 07:14:23;;;;;;;4.03;3.30;;;;;;;14.30;58.65;102049.72;5026625;28;20219;-75
2023/05/19 07:16:49;;;;;;;3.43;2.90;;;;;;;14.43;58.37;102051.41;5025097;28;20199;-75
2023/05/19 07:19:18;;;;;;;4.67;3.30;;;;;;;14.55;57.47;102061.41;5024843;28;20215;-75
2023/05/19 07:21:46;;;;;;;3.77;2.63;;;;;;;14.70;56.41;102066.22;5033938;28;20212;-75
2023/05/19 07:24:13;;;;;;;5.20;2.97;;;;;;;14.83;56.77;102059.91;5025022;28;20209;-75
2023/05/19 07:26:39;;;;;;;5.53;2.60;;;;;;;14.97;57.49;102060.50;5023874;28;20234;-75
2023/05/19 07:29:06;;;;;;;4.10;2.50;;;;;;;15.09;55.48;102053.41;5026287;28;20197;-75
2023/05/19 07:31:32;;;;;;;6.73;2.80;;;;;;;15.21;56.75;102042.09;5039969;28;20291;-75
2023/05/19 07:33:59;;;;;;;4.40;2.77;;;;;;;15.29;54.06;102051.91;5040966;28;20211;-75
2023/05/19 07:36:26;;;;;;;4.63;2.80;;;;;;;15.39;55.38;102047.03;5039383;28;20389;-75
2023/05/19 07:38:53;;;;;;;3.77;2.53;;;;;;;15.51;53.95;102054.31;5041969;28;20271;-75
2023/05/19 07:41:20;;;;;;;3.50;2.23;;;;;;;15.57;53.06;102051.16;5041033;28;20222;-75
2023/05/19 07:43:46;;;;;;;3.80;2.37;;;;;;;15.66;53.06;102053.75;5042721;28;20706;-75
2023/05/19 07:46:13;;;;;;;5.20;2.50;;;;;;;15.70;53.82;102052.81;5039720;28;20659;-75
2023/05/19 07:48:39;;;;;;;4.30;2.50;;;;;;;15.80;52.52;102052.44;5038519;28;20286;-75
2023/05/19 07:51:08;;;;;;;3.63;2.43;;;;;;;15.96;53.42;102037.41;5007506;28;20728;-75
2023/05/19 07:53:37;;;;;;;4.07;2.27;;;;;;;16.16;52.54;102049.16;5039950;28;20223;-76
2023/05/19 07:56:05;;;;;;;3.17;2.50;;;;;;;16.33;52.96;102039.13;5039838;28;20272;-76
2023/05/19 07:58:31;;;;;;;4.10;2.27;;;;;;;16.40;51.95;102038.63;5024248;28;20218;-76
2023/05/19 08:00:58;;;;;;;4.43;2.07;;;;;;;16.45;51.90;102044.50;5040230;28;20767;-76
2023/05/19 08:03:25;;;;;;;4.23;2.50;;;;;;;16.50;51.14;102035.53;5037252;28;20473;-76
2023/05/19 08:05:51;;;;;;;3.50;2.40;;;;;;;16.53;50.92;102029.53;5041184;28;20235;-76
2023/05/19 08:08:18;;;;;;;4.30;2.43;;;;;;;16.56;48.53;102023.53;5042022;28;21122;-76
2023/05/19 08:10:44;;;;;;;5.30;2.23;;;;;;;16.55;50.21;102035.34;5040554;28;20636;-76
2023/05/19 08:13:12;;;;;;;4.30;2.27;;;;;;;16.56;50.52;102020.88;5023882;28;20495;-76
2023/05/19 08:15:39;;;;;;;2.73;2.00;;;;;;;16.53;50.29;102025.00;5042191;28;20627;-76
2023/05/19 08:18:06;;;;;;;3.23;1.93;;;;;;;16.48;49.45;102037.75;5021110;28;20349;-75
2023/05/19 08:20:32;;;;;;;3.47;2.30;;;;;;;16.43;49.65;102036.06;5023266;28;20223;-75
2023/05/19 08:22:59;;;;;;;3.10;2.10;;;;;;;16.38;49.83;102033.56;5038820;28;20633;-75
2023/05/19 08:25:25;;;;;;;2.97;2.07;;;;;;;16.29;48.09;102027.53;5038324;28;20219;-76
2023/05/19 08:27:52;;;;;;;2.07;1.73;;;;;;;16.28;48.35;102018.00;5037248;28;20215;-75
2023/05/19 08:30:20;;;;;;;5.47;2.20;;;;;;;16.30;49.28;102023.00;5033960;28;20313;-75
2023/05/19 08:32:47;;;;;;;2.87;1.90;;;;;;;16.26;48.43;102020.19;5041937;28;20217;-75
2023/05/19 08:35:13;;;;;;;3.57;1.87;;;;;;;16.31;48.09;102009.31;5039932;28;20735;-75
2023/05/19 08:37:40;;;;;;;6.00;2.20;;;;;;;16.40;48.38;102011.97;5041492;28;20202;-75
2023/05/19 08:40:10;;;;;;;2.97;1.90;;;;;;;16.52;48.16;102007.44;5036493;28;20234;-75
2023/05/19 08:42:37;;;;;;;4.60;1.90;;;;;;;16.59;47.55;102002.31;5037107;28;20711;-75
2023/05/19 08:45:04;;;;;;;2.83;1.90;;;;;;;16.65;46.17;101998.34;5037650;28;20194;-75
2023/05/19 08:47:32;;;;;;;3.30;2.30;;;;;;;16.67;46.47;102004.09;5038729;28;21488;-75
2023/05/19 08:50:04;;;;;;;3.07;2.00;;;;;;;16.65;46.58;102017.00;5039478;28;20230;-75
2023/05/19 08:52:40;;;;;;;3.57;1.90;;;;;;;16.66;47.19;101986.53;5018949;28;20227;-75
2023/05/19 08:55:12;;;;;;;3.20;2.30;;;;;;;16.73;45.98;101996.69;5039204;28;20335;-75
2023/05/19 08:57:40;;;;;;;3.50;2.00;;;;;;;16.76;45.51;101988.03;5035635;28;20194;-75
2023/05/19 09:00:08;;;;;;;2.43;2.03;;;;;;;16.83;46.66;101978.34;5039775;28;20229;-75
2023/05/19 09:02:38;;;;;;;3.70;2.37;;;;;;;16.89;47.11;101990.34;5018550;28;20214;-76
2023/05/19 09:05:05;;;;;;;3.73;2.20;;;;;;;16.96;46.87;101977.22;5040804;28;20202;-75
2023/05/19 09:07:36;;;;;;;3.43;2.17;;;;;;;17.05;46.79;101977.09;5037000;28;20406;-75
2023/05/19 09:10:04;;;;;;;4.90;1.97;;;;;;;17.10;45.99;101987.56;5033863;28;20214;-75
2023/05/19 09:12:31;;;;;;;2.57;1.87;;;;;;;17.19;46.28;101974.88;5021521;28;20284;-75
2023/05/19 09:14:58;;;;;;;3.23;2.07;;;;;;;17.29;46.44;101983.19;5036586;28;20222;-77
2023/05/19 09:17:24;;;;;;;3.27;1.80;;;;;;;17.37;46.48;101984.97;5018342;28;20670;-76
2023/05/19 09:19:52;;;;;;;2.67;1.90;;;;;;;17.43;46.31;101964.19;5036884;28;20713;-76
2023/05/19 09:22:20;;;;;;;2.20;1.70;;;;;;;17.52;45.85;101972.84;5034348;28;20229;-76
2023/05/19 09:24:47;;;;;;;3.73;1.90;;;;;;;17.63;43.89;101980.03;5036373;28;20206;-76
2023/05/19 09:27:14;;;;;;;3.03;1.90;;;;;;;17.70;44.83;101982.91;5038425;28;20673;-76
2023/05/19 09:29:41;;;;;;;5.07;2.30;;;;;;;17.82;43.50;101977.53;5035264;28;20471;-76
2023/05/19 09:32:08;;;;;;;2.33;1.83;;;;;;;17.86;44.44;101983.75;5038743;28;20475;-78
2023/05/19 09:34:40;;;;;;;2.23;1.60;;;;;;;18.01;45.63;101980.34;5034890;28;20210;-76
2023/05/19 09:37:08;;;;;;;3.83;1.93;;;;;;;18.17;43.44;101977.72;5039151;28;20204;-76
2023/05/19 09:39:34;;;;;;;2.47;1.87;;;;;;;18.22;44.34;101993.50;5017605;28;20195;-76
2023/05/19 09:42:05;;;;;;;3.67;1.83;;;;;;;18.31;42.81;101983.44;5038693;28;20203;-76
2023/05/19 09:44:31;;;;;;;2.13;1.70;;;;;;;18.35;44.75;101977.09;5036189;28;20195;-77
2023/05/19 09:46:58;;;;;;;3.60;1.70;;;;;;;18.32;44.03;101979.66;5038402;28;20263;-77
2023/05/19 09:49:28;;;;;;;3.80;1.63;;;;;;;18.26;43.89;101967.66;5041340;28;20195;-77
2023/05/19 09:51:55;;;;;;;1.97;1.60;;;;;;;18.16;43.30;101973.50;5039916;28;20195;-76
2023/05/19 09:54:26;;;;;;;2.17;1.50;;;;;;;18.07;42.77;101970.94;5038596;28;20203;-77
2023/05/19 09:56:57;;;;;;;2.53;1.53;;;;;;;18.01;42.58;101968.88;5036416;28;20203;-77
2023/05/19 09:59:24;;;;;;;3.63;1.87;;;;;;;17.99;42.95;101971.09;5037613;28;20611;-77
2023/05/19 10:01:54;;;;;;;2.10;1.63;;;;;;;17.98;43.40;101961.53;5038821;28;20199;-77
2023/05/19 10:04:23;;;;;;;5.53;1.77;;;;;;;18.07;43.58;101965.59;5037883;28;20199;-77
2023/05/19 10:06:52;;;;;;;2.83;1.60;;;;;;;18.16;42.89;101960.13;5039691;28;20236;-77
2023/05/19 10:09:23;;;;;;;3.83;1.70;;;;;;;18.23;42.52;101971.00;5041058;28;20283;-76
2023/05/19 10:11:51;;;;;;;3.70;1.60;;;;;;;18.26;42.12;101959.63;5030374;28;20195;-77
2023/05/19 10:14:18;;;;;;;3.30;1.70;;;;;;;18.28;43.41;101960.84;5033438;28;20227;-77
2023/05/19 10:16:45;;;;;;;2.30;1.63;;;;;;;18.23;41.90;101962.97;5039982;28;20192;-77
2023/05/19 10:19:13;;;;;;;2.03;1.67;;;;;;;18.18;42.52;101958.66;5022899;28;20200;-77
2023/05/19 10:21:40;;;;;;;3.23;1.83;;;;;;;18.15;43.02;101959.34;5023457;28;20227;-76
2023/05/19 10:24:06;;;;;;;3.00;1.80;;;;;;;18.04;42.12;101957.50;5040168;28;20210;-76
2023/05/19 10:26:35;;;;;;;1.93;1.53;;;;;;;18.05;42.87;101954.47;5032873;28;20242;-76
2023/05/19 10:29:03;;;;;;;2.80;1.87;;;;;;;18.05;42.58;101959.06;5036282;28;20687;-76
2023/05/19 10:31:32;;;;;;;4.27;1.97;;;;;;;18.13;42.31;101958.13;5022382;28;20219;-75
2023/05/19 10:34:20;;;;;;;2.60;1.77;;;;;;;18.24;43.11;101956.50;5041633;28;20201;-75
2023/05/19 10:36:49;;;;;;;4.33;1.80;;;;;;;18.34;43.80;101951.47;5039630;28;20208;-75
2023/05/19 10:39:18;;;;;;;2.90;1.80;;;;;;;18.47;43.35;101949.50;5037210;28;20204;-75
2023/05/19 10:42:02;;;;;;;2.93;1.50;;;;;;;18.49;42.39;101949.91;5039090;28;20207;-76
2023/05/19 10:44:40;;;;;;;3.60;1.83;;;;;;;18.62;41.50;101954.06;5039178;28;20278;-76
2023/05/19 10:47:10;;;;;;;1.70;1.60;;;;;;;18.77;41.58;101953.25;5039622;28;20629;-76
2023/05/19 10:49:37;;;;;;;3.80;1.60;;;;;;;18.80;42.38;101953.34;5044066;28;20786;-76
2023/05/19 10:52:18;;;;;;;3.20;1.83;;;;;;;18.75;40.72;101948.28;5043611;28;20199;-76
2023/05/19 10:54:45;;;;;;;2.90;1.90;;;;;;;18.77;41.31;101953.25;5042708;28;20564;-76
2023/05/19 10:57:16;;;;;;;2.37;1.90;;;;;;;18.77;41.85;101950.56;5026158;28;20211;-76
2023/05/19 10:59:44;;;;;;;3.13;1.80;;;;;;;18.81;41.83;101943.41;5039032;28;20219;-76
2023/05/19 11:02:31;;;;;;;2.67;1.57;;;;;;;18.87;40.77;101937.44;5037866;28;20826;-75
2023/05/19 11:05:08;;;;;;;2.47;1.63;;;;;;;18.93;41.85;101940.66;5032583;28;20210;-76
2023/05/19 11:07:34;;;;;;;2.77;1.60;;;;;;;18.90;40.22;101934.09;5035102;28;20260;-76
2023/05/19 11:10:06;;;;;;;2.17;1.70;;;;;;;18.89;40.64;101942.47;5026075;28;20225;-76
2023/05/19 11:12:51;;;;;;;2.13;1.50;;;;;;;18.81;40.00;101935.38;5036298;28;20207;-76
2023/05/19 11:15:18;;;;;;;2.77;1.77;;;;;;;18.75;41.20;101934.09;5041457;28;20203;-77
2023/05/19 11:17:48;;;;;;;3.10;1.70;;;;;;;18.64;40.93;101949.13;5042742;28;20908;-77
2023/05/19 11:20:22;;;;;;;1.80;1.70;;;;;;;18.54;41.34;101941.63;5027715;28;20234;-76
2023/05/19 11:23:03;;;;;;;2.23;1.70;;;;;;;18.39;41.58;101935.16;5041538;28;20214;-77
2023/05/19 11:25:41;;;;;;;3.37;1.73;;;;;;;18.31;41.75;101944.09;5043514;28;20706;-77
2023/05/19 11:28:10;;;;;;;3.37;2.07;;;;;;;18.23;41.75;101937.03;5040104;28;20198;-77
2023/05/19 11:30:37;;;;;;;2.87;1.50;;;;;;;18.10;41.91;101946.22;5043344;28;20215;-77
2023/05/19 11:33:05;;;;;;;4.23;1.80;;;;;;;18.13;42.16;101934.84;5044261;28;20199;-77
2023/05/19 11:35:33;;;;;;;2.70;2.10;;;;;;;18.10;42.28;101924.84;5045396;28;20604;-77
2023/05/19 11:38:00;;;;;;;2.07;1.57;;;;;;;18.12;42.10;101935.19;5044243;28;20217;-77
2023/05/19 11:40:26;;;;;;;2.00;1.73;;;;;;;18.13;43.47;101944.75;5045495;28;20229;-76
2023/05/19 11:42:53;;;;;;;3.87;1.70;;;;;;;18.21;42.91;101941.16;5042558;28;20200;-77